createdAt,value
2022-12-20T00:01:49.346Z,10.20
2022-12-20T00:04:17.167Z,10.10
2022-12-20T00:06:44.757Z,10.30
2022-12-20T00:09:13.070Z,10.30
2022-12-20T00:11:42.512Z,10.40
2022-12-20T00:14:11.468Z,10.60
2022-12-20T00:16:39.734Z,10.60
2022-12-20T00:19:10.753Z,10.50
2022-12-20T00:21:41.428Z,10.50
2022-12-20T00:24:11.061Z,10.50
2022-12-20T00:26:39.264Z,10.50
2022-12-20T00:29:09.882Z,10.40
2022-12-20T00:31:37.889Z,10.30
2022-12-20T00:34:05.906Z,10.30
2022-12-20T00:36:36.789Z,10.30
2022-12-20T00:39:05.924Z,10.30
2022-12-20T00:41:37.999Z,10.30
2022-12-20T00:44:06.830Z,10.60
2022-12-20T00:46:37.642Z,10.50
2022-12-20T00:49:05.309Z,10.50
2022-12-20T00:51:37.086Z,10.50
2022-12-20T00:54:05.710Z,10.60
2022-12-20T00:56:33.264Z,10.60
2022-12-20T00:59:00.933Z,10.60
2022-12-20T01:01:34.551Z,10.40
2022-12-20T01:04:03.682Z,10.50
2022-12-20T01:06:33.020Z,10.60
2022-12-20T01:09:01.785Z,10.70
2022-12-20T01:11:36.476Z,10.50
2022-12-20T01:14:17.217Z,10.50
2022-12-20T01:16:48.080Z,10.60
2022-12-20T01:19:18.788Z,10.60
2022-12-20T01:21:47.328Z,10.80
2022-12-20T01:24:20.284Z,10.60
2022-12-20T01:26:48.792Z,10.60
2022-12-20T01:29:17.494Z,10.50
2022-12-20T01:31:53.022Z,10.50
2022-12-20T01:34:23.563Z,10.40
2022-12-20T01:36:51.519Z,10.30
2022-12-20T01:39:19.335Z,10.30
2022-12-20T01:41:48.259Z,10.30
2022-12-20T01:44:18.976Z,10.50
2022-12-20T01:46:54.359Z,10.40
2022-12-20T01:49:37.845Z,10.40
2022-12-20T01:52:44.081Z,10.30
2022-12-20T01:55:28.744Z,10.40
2022-12-20T01:58:08.897Z,10.60
2022-12-20T02:00:37.456Z,10.50
2022-12-20T02:03:12.683Z,10.50
2022-12-20T02:05:47.102Z,10.80
2022-12-20T02:08:26.080Z,10.60
2022-12-20T02:11:29.484Z,10.60
2022-12-20T02:14:15.403Z,10.50
2022-12-20T02:17:57.555Z,10.50
2022-12-20T02:21:34.634Z,10.50
2022-12-20T02:24:34.523Z,10.50
2022-12-20T02:27:44.046Z,10.40
2022-12-20T02:30:34.380Z,10.40
2022-12-20T02:33:12.984Z,10.40
2022-12-20T02:35:42.829Z,10.40
2022-12-20T02:38:32.873Z,10.60
2022-12-20T02:41:40.858Z,10.80
2022-12-20T02:44:38.018Z,10.80
2022-12-20T02:47:17.505Z,10.70
2022-12-20T02:49:51.290Z,10.80
2022-12-20T02:52:26.697Z,10.70
2022-12-20T02:54:56.267Z,10.60
2022-12-20T02:58:03.034Z,10.50
2022-12-20T03:00:44.798Z,10.40
2022-12-20T03:03:23.082Z,10.40
2022-12-20T03:05:57.145Z,10.40
2022-12-20T03:08:26.570Z,10.40
2022-12-20T03:10:56.466Z,10.30
2022-12-20T03:13:26.607Z,10.30
2022-12-20T03:16:02.369Z,10.30
2022-12-20T03:18:30.139Z,10.20
2022-12-20T03:20:57.911Z,10.30
2022-12-20T03:23:25.953Z,10.30
2022-12-20T03:25:54.286Z,10.10
2022-12-20T03:28:44.858Z,10.00
2022-12-20T03:31:17.302Z,10.10
2022-12-20T03:33:51.838Z,10.10
2022-12-20T03:36:23.662Z,9.90
2022-12-20T03:38:56.592Z,10.10
2022-12-20T03:41:26.911Z,10.00
2022-12-20T03:43:54.980Z,9.90
2022-12-20T03:46:28.117Z,9.90
2022-12-20T03:48:56.210Z,9.80
2022-12-20T03:51:24.509Z,9.80
2022-12-20T03:53:52.466Z,9.80
2022-12-20T03:56:22.344Z,9.70
2022-12-20T03:58:50.158Z,9.70
2022-12-20T04:01:27.598Z,9.70
2022-12-20T04:03:57.565Z,9.60
2022-12-20T04:06:25.240Z,9.70
2022-12-20T04:08:53.205Z,9.70
2022-12-20T04:11:27.749Z,9.70
2022-12-20T04:14:07.280Z,9.70
2022-12-20T04:16:35.610Z,9.60
2022-12-20T04:19:03.635Z,9.70
2022-12-20T04:21:37.224Z,9.80
2022-12-20T04:24:06.652Z,9.70
2022-12-20T04:26:55.106Z,9.90
2022-12-20T04:29:22.781Z,10.10
2022-12-20T04:31:51.286Z,10.00
2022-12-20T04:34:19.541Z,10.00
2022-12-20T04:36:47.821Z,9.90
2022-12-20T04:39:23.468Z,9.80
2022-12-20T04:42:13.743Z,9.70
2022-12-20T04:44:41.723Z,9.80
2022-12-20T04:47:11.089Z,9.80
2022-12-20T04:49:38.787Z,9.80
2022-12-20T04:52:25.217Z,9.90
2022-12-20T04:54:53.493Z,9.90
2022-12-20T04:57:26.398Z,9.90
2022-12-20T04:59:54.444Z,10.00
2022-12-20T05:02:22.743Z,10.20
2022-12-20T05:04:54.794Z,10.00
2022-12-20T05:07:22.423Z,10.10
2022-12-20T05:09:55.313Z,9.90
2022-12-20T05:12:22.962Z,9.80
2022-12-20T05:14:50.867Z,9.80
2022-12-20T05:17:22.023Z,9.90
2022-12-20T05:19:50.194Z,9.80
2022-12-20T05:22:36.281Z,9.90
2022-12-20T05:25:30.535Z,9.90
2022-12-20T05:28:02.896Z,9.90
2022-12-20T05:30:35.083Z,9.90
2022-12-20T05:33:03.143Z,9.80
2022-12-20T05:35:32.167Z,9.80
2022-12-20T05:38:07.827Z,9.80
2022-12-20T05:40:35.854Z,9.80
2022-12-20T05:43:03.756Z,9.70
2022-12-20T05:45:38.607Z,9.70
2022-12-20T05:48:13.969Z,9.70
2022-12-20T05:50:44.968Z,9.80
2022-12-20T05:53:32.203Z,9.80
2022-12-20T05:56:03.536Z,9.70
2022-12-20T05:58:35.105Z,9.80
2022-12-20T06:01:09.383Z,9.80
2022-12-20T06:03:41.075Z,9.90
2022-12-20T06:06:15.605Z,9.80
2022-12-20T06:08:46.827Z,9.80
2022-12-20T06:11:25.786Z,9.70
2022-12-20T06:14:02.099Z,9.70
2022-12-20T06:16:31.548Z,9.70
2022-12-20T06:19:00.749Z,9.80
2022-12-20T06:21:30.628Z,9.70
2022-12-20T06:24:16.247Z,9.70
2022-12-20T06:26:46.780Z,9.80
2022-12-20T06:29:17.515Z,9.80
2022-12-20T06:31:51.460Z,9.80
2022-12-20T06:34:20.737Z,10.00
2022-12-20T06:36:48.618Z,10.00
2022-12-20T06:39:21.018Z,10.00
2022-12-20T06:41:56.777Z,10.00
2022-12-20T06:44:25.563Z,10.00
2022-12-20T06:46:53.255Z,10.00
2022-12-20T06:49:22.568Z,10.10
2022-12-20T06:51:50.948Z,10.10
2022-12-20T06:54:23.113Z,10.20
2022-12-20T06:56:51.699Z,10.20
2022-12-20T06:59:20.074Z,10.30
2022-12-20T07:01:47.876Z,10.50
2022-12-20T07:04:15.737Z,10.50
2022-12-20T07:06:43.382Z,10.50
2022-12-20T07:09:10.877Z,10.30
2022-12-20T07:11:39.109Z,10.40
2022-12-20T07:14:06.738Z,10.30
2022-12-20T07:16:34.558Z,10.30
2022-12-20T07:19:02.821Z,10.40
2022-12-20T07:21:30.446Z,10.30
2022-12-20T07:23:58.441Z,10.30
2022-12-20T07:26:26.040Z,10.30
2022-12-20T07:28:53.732Z,10.70
2022-12-20T07:31:21.498Z,10.80
2022-12-20T07:33:49.251Z,10.70
2022-12-20T07:36:17.180Z,10.70
2022-12-20T07:38:44.811Z,10.60
2022-12-20T07:41:20.525Z,10.60
2022-12-20T07:43:48.459Z,10.50
2022-12-20T07:46:17.819Z,10.60
2022-12-20T07:48:45.907Z,10.60
2022-12-20T07:51:28.202Z,10.50
2022-12-20T07:54:29.053Z,10.60
2022-12-20T07:57:12.540Z,10.70
2022-12-20T07:59:49.294Z,10.70
2022-12-20T08:02:38.644Z,10.60
2022-12-20T08:05:11.025Z,10.70
2022-12-20T08:07:44.435Z,10.60
2022-12-20T08:10:17.539Z,10.50
2022-12-20T08:12:48.625Z,10.40
2022-12-20T08:15:17.384Z,10.40
2022-12-20T08:17:45.495Z,10.50
2022-12-20T08:20:13.897Z,10.50
2022-12-20T08:22:41.555Z,10.50
2022-12-20T08:25:09.999Z,10.70
2022-12-20T08:27:37.835Z,10.70
2022-12-20T08:30:08.920Z,10.80
2022-12-20T08:32:37.616Z,11.00
2022-12-20T08:35:07.125Z,11.10
2022-12-20T08:37:35.132Z,11.10
2022-12-20T08:40:02.802Z,11.20
2022-12-20T08:42:30.499Z,11.10
2022-12-20T08:44:58.202Z,11.00
2022-12-20T08:47:26.011Z,11.10
2022-12-20T08:49:53.659Z,11.10
2022-12-20T08:52:21.785Z,11.30
2022-12-20T08:54:49.400Z,11.40
2022-12-20T08:57:17.580Z,11.40
2022-12-20T08:59:45.634Z,11.30
2022-12-20T09:02:13.997Z,11.40
2022-12-20T09:04:50.311Z,11.40
2022-12-20T09:07:21.681Z,11.40
2022-12-20T09:09:49.248Z,11.40
2022-12-20T09:12:16.790Z,11.50
2022-12-20T09:14:45.256Z,11.50
2022-12-20T09:17:12.867Z,11.60
2022-12-20T09:19:40.728Z,11.60
2022-12-20T09:22:16.506Z,11.70
2022-12-20T09:25:03.726Z,11.90
2022-12-20T09:27:34.921Z,11.80
2022-12-20T09:30:02.546Z,11.80
2022-12-20T09:32:30.094Z,11.70
2022-12-20T09:34:57.701Z,11.70
2022-12-20T09:37:25.337Z,11.60
2022-12-20T09:39:52.909Z,11.90
2022-12-20T09:42:29.362Z,11.80
2022-12-20T09:45:09.934Z,11.80
2022-12-20T09:47:39.409Z,11.90
2022-12-20T09:50:14.684Z,11.90
2022-12-20T09:53:41.711Z,11.80
2022-12-20T09:56:51.871Z,11.90
2022-12-20T09:59:21.361Z,11.90
2022-12-20T10:02:26.842Z,11.80
2022-12-20T10:04:57.272Z,11.80
2022-12-20T10:08:23.848Z,11.80
2022-12-20T10:11:40.764Z,11.90
2022-12-20T10:14:27.464Z,11.80
2022-12-20T10:17:42.496Z,11.70
2022-12-20T10:20:53.765Z,11.80
2022-12-20T10:23:43.208Z,11.80
2022-12-20T10:26:14.248Z,11.80
2022-12-20T10:28:42.183Z,11.70
2022-12-20T10:31:18.366Z,11.60
2022-12-20T10:33:47.063Z,11.70
2022-12-20T10:36:37.098Z,11.70
2022-12-20T10:39:10.141Z,11.80
2022-12-20T10:41:40.795Z,12.10
2022-12-20T10:44:29.924Z,12.20
2022-12-20T10:47:01.900Z,12.20
2022-12-20T10:49:40.988Z,12.10
2022-12-20T10:52:08.632Z,11.90
2022-12-20T10:54:43.967Z,11.80
2022-12-20T10:57:24.590Z,11.80
2022-12-20T11:00:06.076Z,12.10
2022-12-20T11:02:42.994Z,12.00
2022-12-20T11:05:11.536Z,12.10
2022-12-20T11:08:36.011Z,11.90
2022-12-20T11:11:22.140Z,11.80
2022-12-20T11:13:52.830Z,11.80
2022-12-20T11:16:40.069Z,11.90
2022-12-20T11:19:43.736Z,12.10
2022-12-20T11:23:45.533Z,12.10
2022-12-20T11:27:39.666Z,12.10
2022-12-20T11:30:24.526Z,12.30
2022-12-20T11:34:10.762Z,12.20
2022-12-20T11:37:27.258Z,12.00
2022-12-20T11:40:44.233Z,12.10
2022-12-20T11:44:29.051Z,11.90
2022-12-20T11:47:45.613Z,11.80
2022-12-20T11:50:49.353Z,11.80
2022-12-20T11:53:58.091Z,11.80
2022-12-20T11:56:44.520Z,11.70
2022-12-20T11:59:52.395Z,12.00
2022-12-20T12:02:51.610Z,11.90
2022-12-20T12:05:49.208Z,11.80
2022-12-20T12:08:41.182Z,11.80
2022-12-20T12:15:16.887Z,12.00
2022-12-20T12:18:10.267Z,11.80
2022-12-20T12:21:06.616Z,11.90
2022-12-20T12:23:45.229Z,11.90
2022-12-20T12:26:34.811Z,12.10
2022-12-20T12:29:19.461Z,12.10
2022-12-20T12:32:33.444Z,12.10
2022-12-20T12:35:46.366Z,12.10
2022-12-20T12:39:15.367Z,12.10
2022-12-20T12:42:57.485Z,12.20
2022-12-20T12:45:48.882Z,12.40
2022-12-20T12:48:33.503Z,12.30
2022-12-20T12:51:03.857Z,12.30
2022-12-20T12:53:50.360Z,12.40
2022-12-20T12:56:46.734Z,12.60
2022-12-20T12:59:45.548Z,12.60
2022-12-20T13:02:16.749Z,12.60
2022-12-20T13:05:26.033Z,12.70
2022-12-20T13:07:55.066Z,12.90
2022-12-20T13:10:25.655Z,12.70
2022-12-20T13:12:57.556Z,12.70
2022-12-20T13:15:25.136Z,12.50
2022-12-20T13:18:17.391Z,12.50
2022-12-20T13:21:32.659Z,12.20
2022-12-20T13:24:50.818Z,11.70
2022-12-20T13:27:33.901Z,11.40
2022-12-20T13:30:14.848Z,11.20
2022-12-20T13:32:48.518Z,11.10
2022-12-20T13:35:25.234Z,11.20
2022-12-20T13:37:57.179Z,11.00
2022-12-20T13:40:47.159Z,11.00
2022-12-20T13:43:46.968Z,10.80
2022-12-20T13:46:42.564Z,10.80
2022-12-20T13:49:32.304Z,10.80
2022-12-20T13:52:12.122Z,10.70
2022-12-20T13:54:52.497Z,10.80
2022-12-20T13:57:46.149Z,10.70
2022-12-20T14:00:26.819Z,10.80
2022-12-20T14:02:56.012Z,10.70
2022-12-20T14:05:34.720Z,10.60
2022-12-20T14:08:37.516Z,10.60
2022-12-20T14:11:19.247Z,10.60
2022-12-20T14:14:02.823Z,10.50
2022-12-20T14:16:33.810Z,10.40
2022-12-20T14:19:15.680Z,10.40
2022-12-20T14:21:46.915Z,10.40
2022-12-20T14:24:22.694Z,10.40
2022-12-20T14:26:54.237Z,10.40
2022-12-20T14:29:32.496Z,10.30
2022-12-20T14:32:00.176Z,10.40
2022-12-20T14:34:41.330Z,10.30
2022-12-20T14:37:39.230Z,10.30
2022-12-20T14:40:09.790Z,10.40
2022-12-20T14:42:41.150Z,10.30
2022-12-20T14:45:14.447Z,10.40
2022-12-20T14:48:15.791Z,10.30
2022-12-20T14:50:54.213Z,10.40
2022-12-20T14:53:30.236Z,10.50
2022-12-20T14:55:58.276Z,10.40
2022-12-20T14:58:34.659Z,10.30
2022-12-20T15:01:24.949Z,10.20
2022-12-20T15:04:00.401Z,10.10
2022-12-20T15:06:48.216Z,10.10
2022-12-20T15:09:17.133Z,10.10
2022-12-20T15:11:46.982Z,10.00
2022-12-20T15:14:38.944Z,10.10
2022-12-20T15:17:15.953Z,10.10
2022-12-20T15:19:44.585Z,10.00
2022-12-20T15:22:20.497Z,10.10
2022-12-20T15:24:48.283Z,10.10
2022-12-20T15:27:16.642Z,10.10
2022-12-20T15:29:44.309Z,10.10
2022-12-20T15:32:32.781Z,10.10
2022-12-20T15:35:00.586Z,10.10
2022-12-20T15:37:28.237Z,10.20
2022-12-20T15:39:55.729Z,10.20
2022-12-20T15:42:25.152Z,10.00
2022-12-20T15:44:52.892Z,10.00
2022-12-20T15:47:20.481Z,10.00
2022-12-20T15:49:50.625Z,9.90
2022-12-20T15:52:24.748Z,10.00
2022-12-20T15:54:53.357Z,9.90
2022-12-20T15:57:22.103Z,10.00
2022-12-20T16:00:01.579Z,10.00
2022-12-20T16:02:39.431Z,10.10
2022-12-20T16:05:25.406Z,10.10
2022-12-20T16:07:56.786Z,10.00
2022-12-20T16:10:24.467Z,9.90
2022-12-20T16:12:52.004Z,9.90
2022-12-20T16:15:24.092Z,9.80
2022-12-20T16:17:52.020Z,9.80
2022-12-20T16:20:20.402Z,9.80
2022-12-20T16:22:56.292Z,9.80
2022-12-20T16:25:36.983Z,9.80
2022-12-20T16:28:05.267Z,9.70
2022-12-20T16:30:33.206Z,9.80
2022-12-20T16:33:00.911Z,9.90
2022-12-20T16:35:39.675Z,9.90
2022-12-20T16:38:07.291Z,9.90
2022-12-20T16:40:34.857Z,9.80
2022-12-20T16:43:02.604Z,9.80
2022-12-20T16:45:33.025Z,9.80
2022-12-20T16:48:01.920Z,9.70
2022-12-20T16:50:29.562Z,9.80
2022-12-20T16:52:57.296Z,9.90
2022-12-20T16:55:28.075Z,10.00
2022-12-20T16:57:56.358Z,10.20
2022-12-20T17:00:29.766Z,10.20
2022-12-20T17:02:59.352Z,10.10
2022-12-20T17:05:39.618Z,10.00
2022-12-20T17:10:52.955Z,10.00
2022-12-20T17:13:20.552Z,10.00
2022-12-20T17:15:49.113Z,10.00
2022-12-20T17:18:16.678Z,10.00
2022-12-20T17:20:44.185Z,9.90
2022-12-20T17:23:15.995Z,10.00
2022-12-20T17:25:47.369Z,10.00
2022-12-20T17:28:18.493Z,9.90
2022-12-20T17:30:46.039Z,9.90
2022-12-20T17:33:16.456Z,10.00
2022-12-20T17:35:44.065Z,10.00
2022-12-20T17:38:11.618Z,10.00
2022-12-20T17:40:39.140Z,10.00
2022-12-20T17:43:11.320Z,10.00
2022-12-20T17:45:39.022Z,10.00
2022-12-20T17:48:07.043Z,10.00
2022-12-20T17:50:34.656Z,9.90
2022-12-20T17:53:02.878Z,9.90
2022-12-20T17:55:30.752Z,10.00
2022-12-20T17:57:58.462Z,10.00
2022-12-20T18:00:39.061Z,10.00
2022-12-20T18:03:07.808Z,10.00
2022-12-20T18:05:35.556Z,10.00
2022-12-20T18:08:03.203Z,10.00
2022-12-20T18:10:31.009Z,9.90
2022-12-20T18:12:58.601Z,9.90
2022-12-20T18:15:26.189Z,9.90
2022-12-20T18:17:53.812Z,9.80
2022-12-20T18:20:21.359Z,9.80
2022-12-20T18:22:49.001Z,9.80
2022-12-20T18:25:18.319Z,9.80
2022-12-20T18:27:46.301Z,9.70
2022-12-20T18:30:14.805Z,9.70
2022-12-20T18:32:42.418Z,9.70
2022-12-20T18:35:11.114Z,9.80
2022-12-20T18:37:38.700Z,9.80
2022-12-20T18:40:08.258Z,9.90
2022-12-20T18:42:36.792Z,10.10
2022-12-20T18:45:05.149Z,10.10
2022-12-20T18:47:33.996Z,10.10
2022-12-20T18:50:02.569Z,10.00
2022-12-20T18:58:14.955Z,9.90
2022-12-20T19:00:58.205Z,9.90
2022-12-20T19:03:28.444Z,9.80
2022-12-20T19:06:00.177Z,9.90
2022-12-20T19:08:30.382Z,9.90
2022-12-20T19:11:08.758Z,9.80
2022-12-20T19:13:39.999Z,9.80
2022-12-20T19:16:16.825Z,9.90
2022-12-20T19:18:47.249Z,9.90
2022-12-20T19:21:24.352Z,9.90
2022-12-20T19:23:58.576Z,10.00
2022-12-20T19:26:30.030Z,10.00
2022-12-20T19:28:59.254Z,10.00
2022-12-20T19:31:33.618Z,9.90
2022-12-20T19:34:11.022Z,9.90
2022-12-20T19:36:46.774Z,9.90
2022-12-20T19:39:25.622Z,10.00
2022-12-20T19:42:22.883Z,9.90
2022-12-20T19:44:41.659Z,9.90
2022-12-20T19:47:09.542Z,9.90
2022-12-20T19:49:37.161Z,9.90
2022-12-20T19:52:07.828Z,9.90
2022-12-20T19:54:35.940Z,9.90
2022-12-20T19:57:18.888Z,9.90
2022-12-20T19:59:58.663Z,10.00
2022-12-20T20:02:29.817Z,9.90
2022-12-20T20:04:57.821Z,9.90
2022-12-20T20:07:25.367Z,9.90
2022-12-20T20:09:52.975Z,9.90
2022-12-20T20:12:20.575Z,9.80
2022-12-20T20:14:48.282Z,9.80
2022-12-20T20:17:16.446Z,9.80
2022-12-20T20:19:46.887Z,9.80
2022-12-20T20:22:19.275Z,9.90
2022-12-20T20:24:50.882Z,9.90
2022-12-20T20:27:18.366Z,9.80
2022-12-20T20:29:49.329Z,9.90
2022-12-20T20:32:16.990Z,9.80
2022-12-20T20:34:44.663Z,9.80
2022-12-20T20:37:12.383Z,9.80
2022-12-20T20:39:39.955Z,9.80
2022-12-20T20:42:07.734Z,9.80
2022-12-20T20:44:35.288Z,9.70
2022-12-20T20:47:03.015Z,9.80
2022-12-20T20:49:30.601Z,9.80
2022-12-20T20:51:58.298Z,9.80
2022-12-20T20:54:25.887Z,9.70
2022-12-20T20:56:53.548Z,9.70
2022-12-20T20:59:22.849Z,9.60
2022-12-20T21:01:52.609Z,9.60
2022-12-20T21:04:20.660Z,9.60
2022-12-20T21:06:50.519Z,9.60
2022-12-20T21:09:20.369Z,9.50
2022-12-20T21:11:48.072Z,9.60
2022-12-20T21:14:16.446Z,9.60
2022-12-20T21:16:44.633Z,9.50
2022-12-20T21:19:12.463Z,9.60
2022-12-20T21:21:40.453Z,9.50
2022-12-20T21:24:08.856Z,9.50
2022-12-20T21:26:36.512Z,9.50
2022-12-20T21:29:04.562Z,9.60
2022-12-20T21:31:32.157Z,9.60
2022-12-20T21:33:59.834Z,9.60
2022-12-20T21:36:27.458Z,9.60
2022-12-20T21:38:58.550Z,9.60
2022-12-20T21:41:29.375Z,9.70
2022-12-20T21:44:00.600Z,9.60
2022-12-20T21:46:32.101Z,9.60
2022-12-20T21:49:00.184Z,9.60
2022-12-20T21:51:30.716Z,9.60
2022-12-20T21:54:03.070Z,9.60
2022-12-20T21:56:35.705Z,9.60
2022-12-20T21:59:05.303Z,9.60
2022-12-20T22:01:33.971Z,9.60
2022-12-20T22:04:06.878Z,9.70
2022-12-20T22:06:35.784Z,9.60
2022-12-20T22:09:07.508Z,9.70
2022-12-20T22:11:36.962Z,9.70
2022-12-20T22:14:05.899Z,9.70
2022-12-20T22:16:35.068Z,9.70
2022-12-20T22:19:03.793Z,9.70
2022-12-20T22:21:34.057Z,9.60
2022-12-20T22:24:03.259Z,9.60
2022-12-20T22:26:33.606Z,9.60
2022-12-20T22:29:06.043Z,9.60
2022-12-20T22:31:36.159Z,9.70
2022-12-20T22:34:05.042Z,9.70
2022-12-20T22:36:32.766Z,9.70
2022-12-20T22:39:00.694Z,9.60
2022-12-20T22:41:34.961Z,9.60
2022-12-20T22:44:04.478Z,9.60
2022-12-20T22:46:33.478Z,9.60
2022-12-20T22:49:01.762Z,9.60
2022-12-20T22:51:33.393Z,9.60
2022-12-20T22:54:02.870Z,9.60
2022-12-20T22:56:30.849Z,9.60
2022-12-20T22:58:58.522Z,9.70
2022-12-20T23:01:26.945Z,9.60
2022-12-20T23:03:54.897Z,9.60
2022-12-20T23:06:23.067Z,9.60
2022-12-20T23:08:50.758Z,9.60
2022-12-20T23:11:47.200Z,9.60
2022-12-20T23:14:39.691Z,9.60
2022-12-20T23:17:10.278Z,9.60
2022-12-20T23:20:16.913Z,9.60
2022-12-20T23:22:45.201Z,9.60
2022-12-20T23:25:19.622Z,9.60
2022-12-20T23:27:50.410Z,9.60
2022-12-20T23:30:23.751Z,9.60
2022-12-20T23:32:51.941Z,9.60
2022-12-20T23:35:21.500Z,9.60
2022-12-20T23:37:49.501Z,9.60
2022-12-20T23:40:18.643Z,9.60
2022-12-20T23:42:46.391Z,9.60
2022-12-20T23:45:14.257Z,9.60
2022-12-20T23:47:42.369Z,9.60
2022-12-20T23:50:10.953Z,9.60
2022-12-20T23:52:38.694Z,9.60
2022-12-20T23:55:07.164Z,9.60
2022-12-20T23:57:34.790Z,9.60
